sensor_id;sensor_type;location;lat;lon;timestamp;temperature;humidity
4223;DHT22;2125;51.436;14.138;2023-01-29T00:01:35;-0.10;87.50
4223;DHT22;2125;51.436;14.138;2023-01-29T00:04:03;-0.10;87.40
4223;DHT22;2125;51.436;14.138;2023-01-29T00:06:30;0.00;87.60
4223;DHT22;2125;51.436;14.138;2023-01-29T00:08:56;-0.10;87.40
4223;DHT22;2125;51.436;14.138;2023-01-29T00:11:23;-0.10;87.40
4223;DHT22;2125;51.436;14.138;2023-01-29T00:13:50;0.00;87.40
4223;DHT22;2125;51.436;14.138;2023-01-29T00:16:17;-0.10;87.40
4223;DHT22;2125;51.436;14.138;2023-01-29T00:18:44;-0.20;87.50
4223;DHT22;2125;51.436;14.138;2023-01-29T00:21:13;-0.20;87.50
4223;DHT22;2125;51.436;14.138;2023-01-29T00:23:40;-0.40;87.60
4223;DHT22;2125;51.436;14.138;2023-01-29T00:26:08;-0.40;87.70
4223;DHT22;2125;51.436;14.138;2023-01-29T00:28:34;-0.40;87.90
4223;DHT22;2125;51.436;14.138;2023-01-29T00:31:06;-0.40;87.70
4223;DHT22;2125;51.436;14.138;2023-01-29T00:33:33;-0.50;87.80
4223;DHT22;2125;51.436;14.138;2023-01-29T00:36:01;-0.40;87.90
4223;DHT22;2125;51.436;14.138;2023-01-29T00:38:29;-0.50;87.70
4223;DHT22;2125;51.436;14.138;2023-01-29T00:40:56;-0.60;87.70
4223;DHT22;2125;51.436;14.138;2023-01-29T00:43:40;-0.70;87.70
4223;DHT22;2125;51.436;14.138;2023-01-29T00:46:24;-0.80;87.70
4223;DHT22;2125;51.436;14.138;2023-01-29T00:48:51;-0.90;87.70
4223;DHT22;2125;51.436;14.138;2023-01-29T00:51:17;-1.00;87.90
4223;DHT22;2125;51.436;14.138;2023-01-29T00:53:45;-1.10;87.90
4223;DHT22;2125;51.436;14.138;2023-01-29T00:56:12;-1.20;88.00
4223;DHT22;2125;51.436;14.138;2023-01-29T00:58:38;-1.30;88.00
4223;DHT22;2125;51.436;14.138;2023-01-29T01:01:05;-1.40;88.00
4223;DHT22;2125;51.436;14.138;2023-01-29T01:03:31;-1.40;88.00
4223;DHT22;2125;51.436;14.138;2023-01-29T01:06:03;-1.50;88.10
4223;DHT22;2125;51.436;14.138;2023-01-29T01:08:30;-1.60;88.20
4223;DHT22;2125;51.436;14.138;2023-01-29T01:11:16;-1.70;88.20
4223;DHT22;2125;51.436;14.138;2023-01-29T01:13:43;-1.80;88.30
4223;DHT22;2125;51.436;14.138;2023-01-29T01:16:11;-1.80;88.30
4223;DHT22;2125;51.436;14.138;2023-01-29T01:18:37;-1.80;88.30
4223;DHT22;2125;51.436;14.138;2023-01-29T01:21:04;-1.80;88.40
4223;DHT22;2125;51.436;14.138;2023-01-29T01:23:31;-1.80;88.30
4223;DHT22;2125;51.436;14.138;2023-01-29T01:25:58;-1.90;88.20
4223;DHT22;2125;51.436;14.138;2023-01-29T01:28:26;-2.00;88.20
4223;DHT22;2125;51.436;14.138;2023-01-29T01:30:53;-2.00;88.20
4223;DHT22;2125;51.436;14.138;2023-01-29T01:33:20;-2.00;88.10
4223;DHT22;2125;51.436;14.138;2023-01-29T01:35:47;-2.00;88.30
4223;DHT22;2125;51.436;14.138;2023-01-29T01:38:13;-2.00;88.20
4223;DHT22;2125;51.436;14.138;2023-01-29T01:40:44;-2.00;88.20
4223;DHT22;2125;51.436;14.138;2023-01-29T01:43:10;-2.00;88.20
4223;DHT22;2125;51.436;14.138;2023-01-29T01:45:38;-1.90;88.10
4223;DHT22;2125;51.436;14.138;2023-01-29T01:48:09;-2.00;88.10
4223;DHT22;2125;51.436;14.138;2023-01-29T01:50:40;-2.10;88.00
4223;DHT22;2125;51.436;14.138;2023-01-29T01:53:10;-2.10;88.00
4223;DHT22;2125;51.436;14.138;2023-01-29T01:55:40;-2.20;87.80
4223;DHT22;2125;51.436;14.138;2023-01-29T01:58:12;-2.20;88.00
4223;DHT22;2125;51.436;14.138;2023-01-29T02:00:42;-2.20;88.10
4223;DHT22;2125;51.436;14.138;2023-01-29T02:03:09;-2.20;88.10
4223;DHT22;2125;51.436;14.138;2023-01-29T02:05:55;-2.20;88.20
4223;DHT22;2125;51.436;14.138;2023-01-29T02:08:46;-2.20;88.10
4223;DHT22;2125;51.436;14.138;2023-01-29T02:11:32;-2.20;88.20
4223;DHT22;2125;51.436;14.138;2023-01-29T02:13:59;-2.30;88.10
4223;DHT22;2125;51.436;14.138;2023-01-29T02:16:27;-2.30;88.20
4223;DHT22;2125;51.436;14.138;2023-01-29T02:18:54;-2.30;88.10
4223;DHT22;2125;51.436;14.138;2023-01-29T02:21:36;-2.30;88.20
4223;DHT22;2125;51.436;14.138;2023-01-29T02:24:34;-2.40;88.20
4223;DHT22;2125;51.436;14.138;2023-01-29T02:27:08;-2.30;88.20
4223;DHT22;2125;51.436;14.138;2023-01-29T02:29:45;-2.40;88.30
4223;DHT22;2125;51.436;14.138;2023-01-29T02:32:19;-2.40;88.40
4223;DHT22;2125;51.436;14.138;2023-01-29T02:34:56;-2.40;88.30
4223;DHT22;2125;51.436;14.138;2023-01-29T02:37:49;-2.40;88.30
4223;DHT22;2125;51.436;14.138;2023-01-29T02:40:25;-2.40;88.40
4223;DHT22;2125;51.436;14.138;2023-01-29T02:43:00;-2.40;88.40
4223;DHT22;2125;51.436;14.138;2023-01-29T02:45:34;-2.40;88.40
4223;DHT22;2125;51.436;14.138;2023-01-29T02:48:04;-2.40;88.40
4223;DHT22;2125;51.436;14.138;2023-01-29T02:50:36;-2.30;88.50
4223;DHT22;2125;51.436;14.138;2023-01-29T02:53:07;-2.30;88.40
4223;DHT22;2125;51.436;14.138;2023-01-29T02:55:39;-2.30;88.40
4223;DHT22;2125;51.436;14.138;2023-01-29T02:58:11;-2.30;88.50
4223;DHT22;2125;51.436;14.138;2023-01-29T03:00:43;-2.20;88.40
4223;DHT22;2125;51.436;14.138;2023-01-29T03:03:13;-2.20;88.30
4223;DHT22;2125;51.436;14.138;2023-01-29T03:05:47;-2.20;88.30
4223;DHT22;2125;51.436;14.138;2023-01-29T03:08:21;-2.30;88.30
4223;DHT22;2125;51.436;14.138;2023-01-29T03:11:03;-2.20;88.30
4223;DHT22;2125;51.436;14.138;2023-01-29T03:13:34;-2.20;88.20
4223;DHT22;2125;51.436;14.138;2023-01-29T03:16:06;-2.10;88.30
4223;DHT22;2125;51.436;14.138;2023-01-29T03:18:39;-2.00;88.20
4223;DHT22;2125;51.436;14.138;2023-01-29T03:21:14;-1.90;88.20
4223;DHT22;2125;51.436;14.138;2023-01-29T03:24:00;-1.90;88.00
4223;DHT22;2125;51.436;14.138;2023-01-29T03:26:44;-1.80;88.00
4223;DHT22;2125;51.436;14.138;2023-01-29T03:29:30;-1.70;88.00
4223;DHT22;2125;51.436;14.138;2023-01-29T03:32:17;-1.60;87.90
4223;DHT22;2125;51.436;14.138;2023-01-29T03:34:48;-1.60;87.80
4223;DHT22;2125;51.436;14.138;2023-01-29T03:37:20;-1.60;87.60
4223;DHT22;2125;51.436;14.138;2023-01-29T03:39:50;-1.50;87.60
4223;DHT22;2125;51.436;14.138;2023-01-29T03:42:22;-1.50;87.60
4223;DHT22;2125;51.436;14.138;2023-01-29T03:44:56;-1.50;87.50
4223;DHT22;2125;51.436;14.138;2023-01-29T03:47:33;-1.40;87.60
4223;DHT22;2125;51.436;14.138;2023-01-29T03:50:08;-1.40;87.50
4223;DHT22;2125;51.436;14.138;2023-01-29T03:52:40;-1.30;87.50
4223;DHT22;2125;51.436;14.138;2023-01-29T03:55:13;-1.40;87.40
4223;DHT22;2125;51.436;14.138;2023-01-29T03:57:43;-1.40;87.20
4223;DHT22;2125;51.436;14.138;2023-01-29T04:00:16;-1.40;87.40
4223;DHT22;2125;51.436;14.138;2023-01-29T04:02:50;-1.40;87.30
4223;DHT22;2125;51.436;14.138;2023-01-29T04:05:20;-1.40;87.10
4223;DHT22;2125;51.436;14.138;2023-01-29T04:07:52;-1.40;87.20
4223;DHT22;2125;51.436;14.138;2023-01-29T04:10:24;-1.40;87.20
4223;DHT22;2125;51.436;14.138;2023-01-29T04:12:55;-1.40;87.10
4223;DHT22;2125;51.436;14.138;2023-01-29T04:15:25;-1.40;87.10
4223;DHT22;2125;51.436;14.138;2023-01-29T04:17:55;-1.40;87.20
4223;DHT22;2125;51.436;14.138;2023-01-29T04:20:22;-1.40;87.20
4223;DHT22;2125;51.436;14.138;2023-01-29T04:22:50;-1.40;87.30
4223;DHT22;2125;51.436;14.138;2023-01-29T04:25:20;-1.40;87.20
4223;DHT22;2125;51.436;14.138;2023-01-29T04:27:57;-1.40;87.10
4223;DHT22;2125;51.436;14.138;2023-01-29T04:30:35;-1.40;87.10
4223;DHT22;2125;51.436;14.138;2023-01-29T04:33:10;-1.50;87.10
4223;DHT22;2125;51.436;14.138;2023-01-29T04:35:47;-1.50;87.20
4223;DHT22;2125;51.436;14.138;2023-01-29T04:38:27;-1.50;87.00
4223;DHT22;2125;51.436;14.138;2023-01-29T04:41:02;-1.60;87.10
4223;DHT22;2125;51.436;14.138;2023-01-29T04:43:40;-1.60;87.20
4223;DHT22;2125;51.436;14.138;2023-01-29T04:46:12;-1.70;87.20
4223;DHT22;2125;51.436;14.138;2023-01-29T04:48:54;-1.70;87.30
4223;DHT22;2125;51.436;14.138;2023-01-29T04:51:31;-1.80;87.30
4223;DHT22;2125;51.436;14.138;2023-01-29T04:54:15;-1.80;87.50
4223;DHT22;2125;51.436;14.138;2023-01-29T04:56:49;-1.80;87.50
4223;DHT22;2125;51.436;14.138;2023-01-29T04:59:21;-1.80;87.50
4223;DHT22;2125;51.436;14.138;2023-01-29T05:01:50;-1.70;87.50
4223;DHT22;2125;51.436;14.138;2023-01-29T05:04:19;-1.60;87.20
4223;DHT22;2125;51.436;14.138;2023-01-29T05:06:47;-1.60;87.30
4223;DHT22;2125;51.436;14.138;2023-01-29T05:09:14;-1.60;87.10
4223;DHT22;2125;51.436;14.138;2023-01-29T05:11:44;-1.60;87.10
4223;DHT22;2125;51.436;14.138;2023-01-29T05:14:12;-1.60;86.90
4223;DHT22;2125;51.436;14.138;2023-01-29T05:16:43;-1.50;87.00
4223;DHT22;2125;51.436;14.138;2023-01-29T05:19:13;-1.50;86.90
4223;DHT22;2125;51.436;14.138;2023-01-29T05:21:43;-1.50;87.00
4223;DHT22;2125;51.436;14.138;2023-01-29T05:24:13;-1.40;86.90
4223;DHT22;2125;51.436;14.138;2023-01-29T05:26:41;-1.50;86.60
4223;DHT22;2125;51.436;14.138;2023-01-29T05:29:25;-1.50;86.60
4223;DHT22;2125;51.436;14.138;2023-01-29T05:31:52;-1.40;86.90
4223;DHT22;2125;51.436;14.138;2023-01-29T05:34:19;-1.50;86.70
4223;DHT22;2125;51.436;14.138;2023-01-29T05:36:46;-1.40;86.60
4223;DHT22;2125;51.436;14.138;2023-01-29T05:39:13;-1.40;86.70
4223;DHT22;2125;51.436;14.138;2023-01-29T05:41:40;-1.40;86.60
4223;DHT22;2125;51.436;14.138;2023-01-29T05:44:06;-1.40;86.30
4223;DHT22;2125;51.436;14.138;2023-01-29T05:46:34;-1.40;86.40
4223;DHT22;2125;51.436;14.138;2023-01-29T05:49:01;-1.40;86.40
4223;DHT22;2125;51.436;14.138;2023-01-29T05:51:27;-1.40;86.40
4223;DHT22;2125;51.436;14.138;2023-01-29T05:53:55;-1.40;86.50
4223;DHT22;2125;51.436;14.138;2023-01-29T05:56:22;-1.30;86.20
4223;DHT22;2125;51.436;14.138;2023-01-29T05:58:49;-1.40;86.20
4223;DHT22;2125;51.436;14.138;2023-01-29T06:01:18;-1.40;86.30
4223;DHT22;2125;51.436;14.138;2023-01-29T06:03:45;-1.30;86.30
4223;DHT22;2125;51.436;14.138;2023-01-29T06:06:13;-1.30;86.50
4223;DHT22;2125;51.436;14.138;2023-01-29T06:08:40;-1.20;86.60
4223;DHT22;2125;51.436;14.138;2023-01-29T06:11:09;-1.20;86.30
4223;DHT22;2125;51.436;14.138;2023-01-29T06:13:37;-1.20;86.10
4223;DHT22;2125;51.436;14.138;2023-01-29T06:16:04;-1.10;86.60
4223;DHT22;2125;51.436;14.138;2023-01-29T06:18:32;-1.10;86.50
4223;DHT22;2125;51.436;14.138;2023-01-29T06:21:02;-1.20;86.00
4223;DHT22;2125;51.436;14.138;2023-01-29T06:23:30;-1.20;86.20
4223;DHT22;2125;51.436;14.138;2023-01-29T06:25:58;-1.10;86.50
4223;DHT22;2125;51.436;14.138;2023-01-29T06:28:27;-1.10;86.40
4223;DHT22;2125;51.436;14.138;2023-01-29T06:30:56;-1.10;86.50
4223;DHT22;2125;51.436;14.138;2023-01-29T06:33:24;-1.10;86.40
4223;DHT22;2125;51.436;14.138;2023-01-29T06:35:54;-1.10;86.60
4223;DHT22;2125;51.436;14.138;2023-01-29T06:38:21;-1.10;86.60
4223;DHT22;2125;51.436;14.138;2023-01-29T06:40:48;-1.10;86.30
4223;DHT22;2125;51.436;14.138;2023-01-29T06:43:15;-1.10;86.40
4223;DHT22;2125;51.436;14.138;2023-01-29T06:45:47;-1.10;86.30
4223;DHT22;2125;51.436;14.138;2023-01-29T06:48:13;-1.10;86.30
4223;DHT22;2125;51.436;14.138;2023-01-29T06:50:40;-1.10;86.00
4223;DHT22;2125;51.436;14.138;2023-01-29T06:53:07;-1.10;85.90
4223;DHT22;2125;51.436;14.138;2023-01-29T06:55:33;-1.10;86.20
4223;DHT22;2125;51.436;14.138;2023-01-29T06:58:04;-1.10;86.10
4223;DHT22;2125;51.436;14.138;2023-01-29T07:00:30;-1.10;85.80
4223;DHT22;2125;51.436;14.138;2023-01-29T07:02:58;-1.00;86.30
4223;DHT22;2125;51.436;14.138;2023-01-29T07:05:25;-0.90;86.30
4223;DHT22;2125;51.436;14.138;2023-01-29T07:07:52;-0.90;86.50
4223;DHT22;2125;51.436;14.138;2023-01-29T07:10:19;-0.90;86.30
4223;DHT22;2125;51.436;14.138;2023-01-29T07:12:45;-0.80;86.20
4223;DHT22;2125;51.436;14.138;2023-01-29T07:15:12;-0.90;86.30
4223;DHT22;2125;51.436;14.138;2023-01-29T07:17:39;-0.80;86.50
4223;DHT22;2125;51.436;14.138;2023-01-29T07:20:08;-0.80;86.20
4223;DHT22;2125;51.436;14.138;2023-01-29T07:22:35;-0.90;86.10
4223;DHT22;2125;51.436;14.138;2023-01-29T07:25:02;-0.80;85.90
4223;DHT22;2125;51.436;14.138;2023-01-29T07:27:29;-0.80;86.20
4223;DHT22;2125;51.436;14.138;2023-01-29T07:29:56;-0.70;86.10
4223;DHT22;2125;51.436;14.138;2023-01-29T07:32:23;-0.70;86.00
4223;DHT22;2125;51.436;14.138;2023-01-29T07:34:49;-0.70;85.90
4223;DHT22;2125;51.436;14.138;2023-01-29T07:37:17;-0.60;86.20
4223;DHT22;2125;51.436;14.138;2023-01-29T07:39:44;-0.60;85.80
4223;DHT22;2125;51.436;14.138;2023-01-29T07:42:12;-0.60;85.30
4223;DHT22;2125;51.436;14.138;2023-01-29T07:44:38;-0.60;85.70
4223;DHT22;2125;51.436;14.138;2023-01-29T07:47:05;-0.50;85.80
4223;DHT22;2125;51.436;14.138;2023-01-29T07:49:31;-0.50;85.60
4223;DHT22;2125;51.436;14.138;2023-01-29T07:51:58;-0.40;85.80
4223;DHT22;2125;51.436;14.138;2023-01-29T07:54:26;-0.30;86.00
4223;DHT22;2125;51.436;14.138;2023-01-29T07:56:54;-0.30;85.20
4223;DHT22;2125;51.436;14.138;2023-01-29T07:59:21;-0.30;85.30
4223;DHT22;2125;51.436;14.138;2023-01-29T08:01:47;-0.30;85.10
4223;DHT22;2125;51.436;14.138;2023-01-29T08:04:14;-0.30;85.20
4223;DHT22;2125;51.436;14.138;2023-01-29T08:06:40;-0.40;84.80
4223;DHT22;2125;51.436;14.138;2023-01-29T08:09:07;-0.40;85.30
4223;DHT22;2125;51.436;14.138;2023-01-29T08:11:35;-0.40;85.30
4223;DHT22;2125;51.436;14.138;2023-01-29T08:14:01;-0.40;85.50
4223;DHT22;2125;51.436;14.138;2023-01-29T08:16:28;-0.40;85.50
4223;DHT22;2125;51.436;14.138;2023-01-29T08:18:55;-0.30;85.70
4223;DHT22;2125;51.436;14.138;2023-01-29T08:21:21;-0.20;85.70
4223;DHT22;2125;51.436;14.138;2023-01-29T08:23:48;-0.20;85.40
4223;DHT22;2125;51.436;14.138;2023-01-29T08:26:14;-0.20;85.60
4223;DHT22;2125;51.436;14.138;2023-01-29T08:28:42;-0.20;85.80
4223;DHT22;2125;51.436;14.138;2023-01-29T08:31:13;-0.20;85.40
4223;DHT22;2125;51.436;14.138;2023-01-29T08:33:40;-0.20;85.60
4223;DHT22;2125;51.436;14.138;2023-01-29T08:36:07;-0.20;85.50
4223;DHT22;2125;51.436;14.138;2023-01-29T08:38:34;-0.20;86.00
4223;DHT22;2125;51.436;14.138;2023-01-29T08:41:01;-0.20;85.90
4223;DHT22;2125;51.436;14.138;2023-01-29T08:43:27;-0.10;86.00
4223;DHT22;2125;51.436;14.138;2023-01-29T08:45:55;-0.10;86.10
4223;DHT22;2125;51.436;14.138;2023-01-29T08:48:22;-0.10;86.10
4223;DHT22;2125;51.436;14.138;2023-01-29T08:50:49;0.00;86.20
4223;DHT22;2125;51.436;14.138;2023-01-29T08:53:16;0.00;85.40
4223;DHT22;2125;51.436;14.138;2023-01-29T08:55:45;0.00;85.60
4223;DHT22;2125;51.436;14.138;2023-01-29T08:58:12;0.10;85.40
4223;DHT22;2125;51.436;14.138;2023-01-29T09:00:38;0.10;85.80
4223;DHT22;2125;51.436;14.138;2023-01-29T09:03:06;0.20;85.90
4223;DHT22;2125;51.436;14.138;2023-01-29T09:05:34;0.10;85.50
4223;DHT22;2125;51.436;14.138;2023-01-29T09:08:01;0.20;85.90
4223;DHT22;2125;51.436;14.138;2023-01-29T09:10:28;0.20;85.30
4223;DHT22;2125;51.436;14.138;2023-01-29T09:12:55;0.10;85.20
4223;DHT22;2125;51.436;14.138;2023-01-29T09:15:22;0.20;85.50
4223;DHT22;2125;51.436;14.138;2023-01-29T09:17:48;0.30;85.70
4223;DHT22;2125;51.436;14.138;2023-01-29T09:20:17;0.20;85.20
4223;DHT22;2125;51.436;14.138;2023-01-29T09:22:44;0.30;85.50
4223;DHT22;2125;51.436;14.138;2023-01-29T09:25:12;0.30;85.40
4223;DHT22;2125;51.436;14.138;2023-01-29T09:27:39;0.30;85.40
4223;DHT22;2125;51.436;14.138;2023-01-29T09:30:06;0.30;85.60
4223;DHT22;2125;51.436;14.138;2023-01-29T09:32:34;0.30;85.40
4223;DHT22;2125;51.436;14.138;2023-01-29T09:35:02;0.20;85.50
4223;DHT22;2125;51.436;14.138;2023-01-29T09:37:30;0.20;85.30
4223;DHT22;2125;51.436;14.138;2023-01-29T09:39:57;0.30;86.00
4223;DHT22;2125;51.436;14.138;2023-01-29T09:42:26;0.40;85.90
4223;DHT22;2125;51.436;14.138;2023-01-29T09:45:00;0.40;85.60
4223;DHT22;2125;51.436;14.138;2023-01-29T09:47:30;0.30;85.10
4223;DHT22;2125;51.436;14.138;2023-01-29T09:50:00;0.30;85.00
4223;DHT22;2125;51.436;14.138;2023-01-29T09:52:35;0.30;85.30
4223;DHT22;2125;51.436;14.138;2023-01-29T09:55:09;0.40;85.10
4223;DHT22;2125;51.436;14.138;2023-01-29T09:57:43;0.40;85.10
4223;DHT22;2125;51.436;14.138;2023-01-29T10:00:14;0.50;85.50
4223;DHT22;2125;51.436;14.138;2023-01-29T10:03:01;0.30;85.00
4223;DHT22;2125;51.436;14.138;2023-01-29T10:05:44;0.30;85.30
4223;DHT22;2125;51.436;14.138;2023-01-29T10:08:45;0.50;86.10
4223;DHT22;2125;51.436;14.138;2023-01-29T10:11:26;0.40;85.50
4223;DHT22;2125;51.436;14.138;2023-01-29T10:14:06;0.30;85.90
4223;DHT22;2125;51.436;14.138;2023-01-29T10:16:47;0.20;85.90
4223;DHT22;2125;51.436;14.138;2023-01-29T10:19:33;0.30;86.30
4223;DHT22;2125;51.436;14.138;2023-01-29T10:25:01;0.30;85.70
4223;DHT22;2125;51.436;14.138;2023-01-29T10:27:31;0.20;86.40
4223;DHT22;2125;51.436;14.138;2023-01-29T10:30:00;0.20;86.60
4223;DHT22;2125;51.436;14.138;2023-01-29T10:32:28;0.30;86.60
4223;DHT22;2125;51.436;14.138;2023-01-29T10:34:57;0.30;86.80
4223;DHT22;2125;51.436;14.138;2023-01-29T10:37:29;0.30;86.50
4223;DHT22;2125;51.436;14.138;2023-01-29T10:40:15;0.40;86.70
4223;DHT22;2125;51.436;14.138;2023-01-29T10:42:45;0.20;86.40
4223;DHT22;2125;51.436;14.138;2023-01-29T10:45:21;0.30;86.80
4223;DHT22;2125;51.436;14.138;2023-01-29T10:48:04;0.30;86.50
4223;DHT22;2125;51.436;14.138;2023-01-29T10:50:43;0.50;86.80
4223;DHT22;2125;51.436;14.138;2023-01-29T10:53:29;0.60;86.60
4223;DHT22;2125;51.436;14.138;2023-01-29T10:56:07;0.60;86.70
4223;DHT22;2125;51.436;14.138;2023-01-29T10:58:42;0.50;86.40
4223;DHT22;2125;51.436;14.138;2023-01-29T11:01:13;0.50;86.80
4223;DHT22;2125;51.436;14.138;2023-01-29T11:03:40;0.60;87.00
4223;DHT22;2125;51.436;14.138;2023-01-29T11:06:11;0.50;87.10
4223;DHT22;2125;51.436;14.138;2023-01-29T11:08:43;0.50;87.30
4223;DHT22;2125;51.436;14.138;2023-01-29T11:11:14;0.50;87.50
4223;DHT22;2125;51.436;14.138;2023-01-29T11:13:44;0.50;87.70
4223;DHT22;2125;51.436;14.138;2023-01-29T11:16:12;0.50;87.70
4223;DHT22;2125;51.436;14.138;2023-01-29T11:18:51;0.50;87.90
4223;DHT22;2125;51.436;14.138;2023-01-29T11:21:18;0.60;87.70
4223;DHT22;2125;51.436;14.138;2023-01-29T11:23:45;0.60;87.50
4223;DHT22;2125;51.436;14.138;2023-01-29T11:26:18;0.60;87.70
4223;DHT22;2125;51.436;14.138;2023-01-29T11:28:47;0.50;88.00
4223;DHT22;2125;51.436;14.138;2023-01-29T11:31:20;0.50;87.90
4223;DHT22;2125;51.436;14.138;2023-01-29T11:33:47;0.50;88.00
4223;DHT22;2125;51.436;14.138;2023-01-29T11:36:28;0.50;88.10
4223;DHT22;2125;51.436;14.138;2023-01-29T11:39:18;0.50;87.90
4223;DHT22;2125;51.436;14.138;2023-01-29T11:41:54;0.50;88.10
4223;DHT22;2125;51.436;14.138;2023-01-29T11:44:26;0.50;87.90
4223;DHT22;2125;51.436;14.138;2023-01-29T11:46:53;0.60;88.20
4223;DHT22;2125;51.436;14.138;2023-01-29T11:49:29;0.70;88.20
4223;DHT22;2125;51.436;14.138;2023-01-29T11:51:59;0.90;88.10
4223;DHT22;2125;51.436;14.138;2023-01-29T11:54:30;0.90;87.80
4223;DHT22;2125;51.436;14.138;2023-01-29T11:56:59;1.00;87.70
4223;DHT22;2125;51.436;14.138;2023-01-29T11:59:34;1.10;87.80
4223;DHT22;2125;51.436;14.138;2023-01-29T12:02:06;1.00;87.60
4223;DHT22;2125;51.436;14.138;2023-01-29T12:04:39;1.10;87.80
4223;DHT22;2125;51.436;14.138;2023-01-29T12:07:12;1.10;88.00
4223;DHT22;2125;51.436;14.138;2023-01-29T12:09:39;1.20;88.20
4223;DHT22;2125;51.436;14.138;2023-01-29T12:12:25;1.20;88.20
4223;DHT22;2125;51.436;14.138;2023-01-29T12:15:03;1.30;88.10
4223;DHT22;2125;51.436;14.138;2023-01-29T12:17:31;1.10;87.90
4223;DHT22;2125;51.436;14.138;2023-01-29T12:20:02;1.10;88.10
4223;DHT22;2125;51.436;14.138;2023-01-29T12:22:40;1.20;88.20
4223;DHT22;2125;51.436;14.138;2023-01-29T12:25:17;1.30;88.20
4223;DHT22;2125;51.436;14.138;2023-01-29T12:27:53;1.30;88.40
4223;DHT22;2125;51.436;14.138;2023-01-29T12:30:26;1.30;88.00
4223;DHT22;2125;51.436;14.138;2023-01-29T12:32:58;1.40;87.90
4223;DHT22;2125;51.436;14.138;2023-01-29T12:35:29;1.40;87.90
4223;DHT22;2125;51.436;14.138;2023-01-29T12:38:01;1.50;87.70
4223;DHT22;2125;51.436;14.138;2023-01-29T12:40:30;1.40;87.80
4223;DHT22;2125;51.436;14.138;2023-01-29T12:43:04;1.40;87.70
4223;DHT22;2125;51.436;14.138;2023-01-29T12:45:32;1.40;87.80
4223;DHT22;2125;51.436;14.138;2023-01-29T12:48:06;1.50;87.60
4223;DHT22;2125;51.436;14.138;2023-01-29T12:50:35;1.50;87.50
4223;DHT22;2125;51.436;14.138;2023-01-29T12:53:06;1.50;87.70
4223;DHT22;2125;51.436;14.138;2023-01-29T12:55:38;1.50;87.20
4223;DHT22;2125;51.436;14.138;2023-01-29T12:58:13;1.60;87.40
4223;DHT22;2125;51.436;14.138;2023-01-29T13:00:43;1.50;87.00
4223;DHT22;2125;51.436;14.138;2023-01-29T13:03:16;1.50;86.70
4223;DHT22;2125;51.436;14.138;2023-01-29T13:05:46;1.40;86.80
4223;DHT22;2125;51.436;14.138;2023-01-29T13:08:19;1.40;86.70
4223;DHT22;2125;51.436;14.138;2023-01-29T13:10:49;1.30;87.10
4223;DHT22;2125;51.436;14.138;2023-01-29T13:13:25;1.30;86.80
4223;DHT22;2125;51.436;14.138;2023-01-29T13:15:54;1.30;87.00
4223;DHT22;2125;51.436;14.138;2023-01-29T13:18:36;1.20;87.10
4223;DHT22;2125;51.436;14.138;2023-01-29T13:21:05;1.20;87.30
4223;DHT22;2125;51.436;14.138;2023-01-29T13:23:38;1.10;87.10
4223;DHT22;2125;51.436;14.138;2023-01-29T13:26:07;1.20;87.40
4223;DHT22;2125;51.436;14.138;2023-01-29T13:28:35;1.20;87.10
4223;DHT22;2125;51.436;14.138;2023-01-29T13:31:23;1.20;86.90
4223;DHT22;2125;51.436;14.138;2023-01-29T13:33:54;1.20;87.20
4223;DHT22;2125;51.436;14.138;2023-01-29T13:36:24;1.10;86.80
4223;DHT22;2125;51.436;14.138;2023-01-29T13:38:58;1.10;86.80
4223;DHT22;2125;51.436;14.138;2023-01-29T13:41:37;1.20;86.80
4223;DHT22;2125;51.436;14.138;2023-01-29T13:44:08;1.30;87.20
4223;DHT22;2125;51.436;14.138;2023-01-29T13:46:48;1.30;87.00
4223;DHT22;2125;51.436;14.138;2023-01-29T13:49:31;1.30;86.70
4223;DHT22;2125;51.436;14.138;2023-01-29T13:52:01;1.30;86.80
4223;DHT22;2125;51.436;14.138;2023-01-29T13:54:39;1.30;86.90
4223;DHT22;2125;51.436;14.138;2023-01-29T14:03:56;1.40;86.80
4223;DHT22;2125;51.436;14.138;2023-01-29T14:06:39;1.50;86.80
4223;DHT22;2125;51.436;14.138;2023-01-29T14:12:49;1.50;86.20
4223;DHT22;2125;51.436;14.138;2023-01-29T14:15:25;1.50;86.80
4223;DHT22;2125;51.436;14.138;2023-01-29T14:18:13;1.50;86.10
4223;DHT22;2125;51.436;14.138;2023-01-29T14:20:51;1.40;86.00
4223;DHT22;2125;51.436;14.138;2023-01-29T14:23:32;1.40;86.50
4223;DHT22;2125;51.436;14.138;2023-01-29T14:26:02;1.30;86.30
4223;DHT22;2125;51.436;14.138;2023-01-29T14:28:31;1.20;86.20
4223;DHT22;2125;51.436;14.138;2023-01-29T14:30:59;1.20;86.10
4223;DHT22;2125;51.436;14.138;2023-01-29T14:33:30;1.20;86.50
4223;DHT22;2125;51.436;14.138;2023-01-29T14:36:03;1.10;86.50
4223;DHT22;2125;51.436;14.138;2023-01-29T14:38:32;1.20;86.50
4223;DHT22;2125;51.436;14.138;2023-01-29T14:41:12;1.20;86.50
4223;DHT22;2125;51.436;14.138;2023-01-29T14:43:40;1.20;86.40
4223;DHT22;2125;51.436;14.138;2023-01-29T14:46:41;1.20;86.70
4223;DHT22;2125;51.436;14.138;2023-01-29T14:49:09;1.30;87.00
4223;DHT22;2125;51.436;14.138;2023-01-29T14:51:40;1.30;86.80
4223;DHT22;2125;51.436;14.138;2023-01-29T14:54:21;1.40;86.60
4223;DHT22;2125;51.436;14.138;2023-01-29T14:56:56;1.30;86.20
4223;DHT22;2125;51.436;14.138;2023-01-29T14:59:29;1.30;86.50
4223;DHT22;2125;51.436;14.138;2023-01-29T15:02:01;1.20;86.50
4223;DHT22;2125;51.436;14.138;2023-01-29T15:04:36;1.30;86.70
4223;DHT22;2125;51.436;14.138;2023-01-29T15:07:17;1.20;86.20
4223;DHT22;2125;51.436;14.138;2023-01-29T15:09:52;1.20;86.50
4223;DHT22;2125;51.436;14.138;2023-01-29T15:12:24;1.20;86.60
4223;DHT22;2125;51.436;14.138;2023-01-29T15:14:59;1.20;86.70
4223;DHT22;2125;51.436;14.138;2023-01-29T15:17:31;1.30;86.80
4223;DHT22;2125;51.436;14.138;2023-01-29T15:19:59;1.20;86.30
4223;DHT22;2125;51.436;14.138;2023-01-29T15:22:27;1.20;86.50
4223;DHT22;2125;51.436;14.138;2023-01-29T15:25:05;1.20;86.40
4223;DHT22;2125;51.436;14.138;2023-01-29T15:27:33;1.10;86.20
4223;DHT22;2125;51.436;14.138;2023-01-29T15:30:03;1.10;86.40
4223;DHT22;2125;51.436;14.138;2023-01-29T15:32:32;1.10;86.30
4223;DHT22;2125;51.436;14.138;2023-01-29T15:35:05;1.10;86.50
4223;DHT22;2125;51.436;14.138;2023-01-29T15:37:35;1.10;86.70
4223;DHT22;2125;51.436;14.138;2023-01-29T15:40:03;1.00;86.70
4223;DHT22;2125;51.436;14.138;2023-01-29T15:42:42;1.10;86.60
4223;DHT22;2125;51.436;14.138;2023-01-29T15:45:21;1.10;86.80
4223;DHT22;2125;51.436;14.138;2023-01-29T15:47:48;1.00;86.60
4223;DHT22;2125;51.436;14.138;2023-01-29T15:50:15;1.00;86.70
4223;DHT22;2125;51.436;14.138;2023-01-29T15:52:47;1.00;86.70
4223;DHT22;2125;51.436;14.138;2023-01-29T15:55:15;1.00;86.70
4223;DHT22;2125;51.436;14.138;2023-01-29T15:57:42;0.90;86.50
4223;DHT22;2125;51.436;14.138;2023-01-29T16:00:20;0.90;86.70
4223;DHT22;2125;51.436;14.138;2023-01-29T16:02:47;0.90;86.80
4223;DHT22;2125;51.436;14.138;2023-01-29T16:05:15;0.80;86.80
4223;DHT22;2125;51.436;14.138;2023-01-29T16:07:44;0.80;86.80
4223;DHT22;2125;51.436;14.138;2023-01-29T16:10:17;0.90;87.00
4223;DHT22;2125;51.436;14.138;2023-01-29T16:12:44;0.80;87.10
4223;DHT22;2125;51.436;14.138;2023-01-29T16:15:20;0.70;86.70
4223;DHT22;2125;51.436;14.138;2023-01-29T16:17:49;0.70;87.00
4223;DHT22;2125;51.436;14.138;2023-01-29T16:20:30;0.80;87.00
4223;DHT22;2125;51.436;14.138;2023-01-29T16:22:59;0.70;87.10
4223;DHT22;2125;51.436;14.138;2023-01-29T16:25:28;0.80;87.20
4223;DHT22;2125;51.436;14.138;2023-01-29T16:27:55;0.70;87.00
4223;DHT22;2125;51.436;14.138;2023-01-29T16:30:24;0.70;87.00
4223;DHT22;2125;51.436;14.138;2023-01-29T16:32:52;0.70;87.10